sensor_id;sensor_type;location;lat;lon;timestamp;pressure;altitude;pressure_sealevel;temperature;humidity
68141;BME280;54941;52.220;104.306;2022-08-01T00:01:51;95245.03;;;26.46;50.21
68141;BME280;54941;52.220;104.306;2022-08-01T00:04:17;95243.50;;;26.45;49.45
68141;BME280;54941;52.220;104.306;2022-08-01T00:06:43;95241.31;;;26.35;50.58
68141;BME280;54941;52.220;104.306;2022-08-01T00:09:09;95238.56;;;27.23;48.07
68141;BME280;54941;52.220;104.306;2022-08-01T00:11:35;95244.81;;;27.31;48.53
68141;BME280;54941;52.220;104.306;2022-08-01T00:14:02;95240.38;;;27.07;48.70
68141;BME280;54941;52.220;104.306;2022-08-01T00:16:28;95248.44;;;26.98;50.33
68141;BME280;54941;52.220;104.306;2022-08-01T00:18:54;95245.28;;;26.93;49.56
68141;BME280;54941;52.220;104.306;2022-08-01T00:21:21;95241.00;;;27.16;49.05
68141;BME280;54941;52.220;104.306;2022-08-01T00:23:47;95245.19;;;27.61;47.63
68141;BME280;54941;52.220;104.306;2022-08-01T00:26:14;95242.56;;;27.92;47.34
68141;BME280;54941;52.220;104.306;2022-08-01T00:28:41;95243.78;;;27.79;46.72
68141;BME280;54941;52.220;104.306;2022-08-01T00:31:07;95245.63;;;27.94;46.37
68141;BME280;54941;52.220;104.306;2022-08-01T00:33:33;95248.16;;;28.69;45.85
68141;BME280;54941;52.220;104.306;2022-08-01T00:35:59;95246.00;;;29.13;44.06
68141;BME280;54941;52.220;104.306;2022-08-01T00:38:26;95251.25;;;28.55;44.72
68141;BME280;54941;52.220;104.306;2022-08-01T00:40:52;95250.69;;;28.81;43.98
68141;BME280;54941;52.220;104.306;2022-08-01T00:43:18;95244.56;;;28.11;44.63
68141;BME280;54941;52.220;104.306;2022-08-01T00:45:44;95250.53;;;28.74;43.92
68141;BME280;54941;52.220;104.306;2022-08-01T00:48:10;95248.22;;;29.49;41.82
68141;BME280;54941;52.220;104.306;2022-08-01T00:50:36;95243.78;;;28.95;43.19
68141;BME280;54941;52.220;104.306;2022-08-01T00:53:03;95237.53;;;28.69;43.99
68141;BME280;54941;52.220;104.306;2022-08-01T00:55:31;95237.63;;;29.30;42.71
68141;BME280;54941;52.220;104.306;2022-08-01T00:57:58;95239.84;;;28.70;43.19
68141;BME280;54941;52.220;104.306;2022-08-01T01:00:25;95241.44;;;28.94;42.47
68141;BME280;54941;52.220;104.306;2022-08-01T01:02:51;95235.31;;;29.47;41.75
68141;BME280;54941;52.220;104.306;2022-08-01T01:05:18;95236.16;;;28.75;43.70
68141;BME280;54941;52.220;104.306;2022-08-01T01:07:56;95232.13;;;29.00;43.29
68141;BME280;54941;52.220;104.306;2022-08-01T01:10:50;95226.91;;;29.68;42.13
68141;BME280;54941;52.220;104.306;2022-08-01T01:13:23;95227.34;;;29.28;43.97
68141;BME280;54941;52.220;104.306;2022-08-01T01:15:55;95223.53;;;29.71;42.65
68141;BME280;54941;52.220;104.306;2022-08-01T01:18:27;95219.28;;;30.12;42.06
68141;BME280;54941;52.220;104.306;2022-08-01T01:24:12;95230.66;;;31.58;39.03
68141;BME280;54941;52.220;104.306;2022-08-01T01:26:49;95235.38;;;30.75;41.21
68141;BME280;54941;52.220;104.306;2022-08-01T01:29:21;95228.03;;;30.65;40.80
68141;BME280;54941;52.220;104.306;2022-08-01T01:31:59;95229.31;;;31.42;38.56
68141;BME280;54941;52.220;104.306;2022-08-01T01:34:29;95230.66;;;31.58;40.08
68141;BME280;54941;52.220;104.306;2022-08-01T01:36:58;95231.75;;;31.54;39.43
68141;BME280;54941;52.220;104.306;2022-08-01T01:39:25;95225.63;;;31.94;38.37
68141;BME280;54941;52.220;104.306;2022-08-01T01:41:53;95223.66;;;31.87;38.65
68141;BME280;54941;52.220;104.306;2022-08-01T01:44:20;95226.81;;;31.96;38.73
68141;BME280;54941;52.220;104.306;2022-08-01T01:46:48;95223.63;;;31.43;39.54
68141;BME280;54941;52.220;104.306;2022-08-01T01:49:16;95217.09;;;32.18;37.84
68141;BME280;54941;52.220;104.306;2022-08-01T01:51:47;95220.19;;;31.79;39.04
68141;BME280;54941;52.220;104.306;2022-08-01T01:54:14;95212.63;;;32.36;37.75
68141;BME280;54941;52.220;104.306;2022-08-01T01:56:41;95210.84;;;32.58;36.39
68141;BME280;54941;52.220;104.306;2022-08-01T01:59:08;95218.03;;;32.50;38.73
68141;BME280;54941;52.220;104.306;2022-08-01T02:01:34;95216.38;;;31.80;39.37
68141;BME280;54941;52.220;104.306;2022-08-01T02:04:02;95209.81;;;32.15;39.93
68141;BME280;54941;52.220;104.306;2022-08-01T02:06:29;95215.38;;;33.44;36.54
68141;BME280;54941;52.220;104.306;2022-08-01T02:08:58;95210.09;;;32.61;38.60
68141;BME280;54941;52.220;104.306;2022-08-01T02:11:26;95214.84;;;32.99;36.94
68141;BME280;54941;52.220;104.306;2022-08-01T02:14:02;95203.31;;;32.74;38.03
68141;BME280;54941;52.220;104.306;2022-08-01T02:16:34;95204.22;;;32.34;36.90
68141;BME280;54941;52.220;104.306;2022-08-01T02:19:01;95197.84;;;32.53;36.58
68141;BME280;54941;52.220;104.306;2022-08-01T02:21:35;95206.16;;;33.20;35.79
68141;BME280;54941;52.220;104.306;2022-08-01T02:24:14;95204.81;;;32.68;37.31
68141;BME280;54941;52.220;104.306;2022-08-01T02:26:47;95208.56;;;33.71;35.13
68141;BME280;54941;52.220;104.306;2022-08-01T02:29:21;95192.53;;;33.89;33.93
68141;BME280;54941;52.220;104.306;2022-08-01T02:31:48;95204.28;;;33.38;35.42
68141;BME280;54941;52.220;104.306;2022-08-01T02:34:19;95202.06;;;33.65;34.91
68141;BME280;54941;52.220;104.306;2022-08-01T02:36:46;95210.78;;;34.68;33.21
68141;BME280;54941;52.220;104.306;2022-08-01T02:39:16;95207.19;;;35.03;32.34
68141;BME280;54941;52.220;104.306;2022-08-01T02:41:47;95222.59;;;34.81;31.99
68141;BME280;54941;52.220;104.306;2022-08-01T02:44:23;95215.78;;;33.60;35.76
68141;BME280;54941;52.220;104.306;2022-08-01T02:46:52;95210.09;;;33.65;36.62
68141;BME280;54941;52.220;104.306;2022-08-01T02:49:20;95212.41;;;33.73;34.96
68141;BME280;54941;52.220;104.306;2022-08-01T02:51:48;95203.59;;;34.15;34.03
68141;BME280;54941;52.220;104.306;2022-08-01T02:54:17;95217.88;;;35.10;32.33
68141;BME280;54941;52.220;104.306;2022-08-01T02:56:45;95218.00;;;34.82;33.20
68141;BME280;54941;52.220;104.306;2022-08-01T02:59:16;95215.75;;;34.73;32.56
68141;BME280;54941;52.220;104.306;2022-08-01T03:01:45;95218.84;;;34.50;33.50
68141;BME280;54941;52.220;104.306;2022-08-01T03:04:12;95216.22;;;34.29;33.81
68141;BME280;54941;52.220;104.306;2022-08-01T03:06:38;95215.31;;;34.82;33.11
68141;BME280;54941;52.220;104.306;2022-08-01T03:09:06;95212.69;;;34.64;31.71
68141;BME280;54941;52.220;104.306;2022-08-01T03:11:34;95214.13;;;34.93;31.67
68141;BME280;54941;52.220;104.306;2022-08-01T03:14:05;95211.78;;;35.06;33.19
68141;BME280;54941;52.220;104.306;2022-08-01T03:16:35;95212.75;;;34.00;34.59
68141;BME280;54941;52.220;104.306;2022-08-01T03:19:04;95207.00;;;34.37;32.32
68141;BME280;54941;52.220;104.306;2022-08-01T03:21:31;95205.13;;;33.78;34.20
68141;BME280;54941;52.220;104.306;2022-08-01T03:23:59;95206.28;;;33.87;34.14
68141;BME280;54941;52.220;104.306;2022-08-01T03:26:32;95203.22;;;34.03;33.56
68141;BME280;54941;52.220;104.306;2022-08-01T03:29:04;95208.38;;;34.95;31.87
68141;BME280;54941;52.220;104.306;2022-08-01T03:31:32;95203.47;;;34.76;31.53
68141;BME280;54941;52.220;104.306;2022-08-01T03:34:00;95190.13;;;34.61;31.80
68141;BME280;54941;52.220;104.306;2022-08-01T03:36:27;95198.94;;;34.55;31.64
68141;BME280;54941;52.220;104.306;2022-08-01T03:38:57;95183.72;;;34.16;32.50
68141;BME280;54941;52.220;104.306;2022-08-01T03:41:28;95186.78;;;33.76;32.53
68141;BME280;54941;52.220;104.306;2022-08-01T03:43:58;95187.63;;;35.75;29.84
68141;BME280;54941;52.220;104.306;2022-08-01T03:46:35;95188.97;;;34.55;30.84
68141;BME280;54941;52.220;104.306;2022-08-01T03:49:07;95189.44;;;35.89;29.10
68141;BME280;54941;52.220;104.306;2022-08-01T03:51:37;95187.03;;;34.59;29.71
68141;BME280;54941;52.220;104.306;2022-08-01T03:54:05;95189.88;;;35.29;29.47
68141;BME280;54941;52.220;104.306;2022-08-01T03:56:33;95182.19;;;33.94;32.02
68141;BME280;54941;52.220;104.306;2022-08-01T03:59:01;95181.22;;;34.89;31.12
68141;BME280;54941;52.220;104.306;2022-08-01T04:01:28;95175.50;;;34.87;30.49
68141;BME280;54941;52.220;104.306;2022-08-01T04:03:58;95166.75;;;32.85;33.52
68141;BME280;54941;52.220;104.306;2022-08-01T04:06:29;95170.50;;;32.66;33.96
68141;BME280;54941;52.220;104.306;2022-08-01T04:08:55;95165.75;;;33.43;31.79
68141;BME280;54941;52.220;104.306;2022-08-01T04:11:25;95166.84;;;34.48;29.84
68141;BME280;54941;52.220;104.306;2022-08-01T04:13:52;95164.16;;;34.44;30.50
68141;BME280;54941;52.220;104.306;2022-08-01T04:16:19;95162.53;;;35.44;28.43
68141;BME280;54941;52.220;104.306;2022-08-01T04:18:46;95156.13;;;34.37;29.56
68141;BME280;54941;52.220;104.306;2022-08-01T04:21:13;95150.09;;;33.62;30.38
68141;BME280;54941;52.220;104.306;2022-08-01T04:23:41;95141.28;;;33.30;30.65
68141;BME280;54941;52.220;104.306;2022-08-01T04:26:10;95132.25;;;31.83;32.69
68141;BME280;54941;52.220;104.306;2022-08-01T04:28:39;95132.13;;;31.25;33.26
68141;BME280;54941;52.220;104.306;2022-08-01T04:31:08;95120.91;;;31.49;30.98
68141;BME280;54941;52.220;104.306;2022-08-01T04:33:35;95127.47;;;32.93;29.95
68141;BME280;54941;52.220;104.306;2022-08-01T04:36:02;95123.25;;;32.77;28.77
68141;BME280;54941;52.220;104.306;2022-08-01T04:38:29;95116.91;;;31.69;30.22
68141;BME280;54941;52.220;104.306;2022-08-01T04:40:57;95123.03;;;32.31;28.54
68141;BME280;54941;52.220;104.306;2022-08-01T04:43:23;95119.22;;;32.29;29.63
68141;BME280;54941;52.220;104.306;2022-08-01T04:45:50;95123.63;;;32.04;28.29
68141;BME280;54941;52.220;104.306;2022-08-01T04:48:18;95116.94;;;31.29;30.24
68141;BME280;54941;52.220;104.306;2022-08-01T04:50:45;95103.38;;;31.45;30.34
68141;BME280;54941;52.220;104.306;2022-08-01T04:53:16;95110.97;;;30.65;30.96
68141;BME280;54941;52.220;104.306;2022-08-01T04:55:46;95101.91;;;30.70;30.89
68141;BME280;54941;52.220;104.306;2022-08-01T04:58:13;95105.88;;;30.53;30.87
68141;BME280;54941;52.220;104.306;2022-08-01T05:00:39;95111.59;;;30.25;31.44
68141;BME280;54941;52.220;104.306;2022-08-01T05:03:06;95109.59;;;31.15;30.84
68141;BME280;54941;52.220;104.306;2022-08-01T05:05:32;95105.72;;;31.09;30.42
68141;BME280;54941;52.220;104.306;2022-08-01T05:07:59;95108.88;;;32.24;28.79
68141;BME280;54941;52.220;104.306;2022-08-01T05:10:25;95112.41;;;32.46;26.63
68141;BME280;54941;52.220;104.306;2022-08-01T05:12:51;95111.56;;;32.27;27.64
68141;BME280;54941;52.220;104.306;2022-08-01T05:15:17;95104.25;;;31.52;27.93
68141;BME280;54941;52.220;104.306;2022-08-01T05:17:43;95107.22;;;30.70;30.38
68141;BME280;54941;52.220;104.306;2022-08-01T05:20:10;95102.56;;;30.60;31.91
68141;BME280;54941;52.220;104.306;2022-08-01T05:22:37;95103.19;;;30.86;32.12
68141;BME280;54941;52.220;104.306;2022-08-01T05:25:04;95096.25;;;31.12;33.78
68141;BME280;54941;52.220;104.306;2022-08-01T05:27:31;95095.78;;;31.03;32.13
68141;BME280;54941;52.220;104.306;2022-08-01T05:29:57;95088.78;;;31.28;31.87
68141;BME280;54941;52.220;104.306;2022-08-01T05:32:23;95081.25;;;31.37;31.52
68141;BME280;54941;52.220;104.306;2022-08-01T05:34:49;95081.91;;;30.86;33.46
68141;BME280;54941;52.220;104.306;2022-08-01T05:37:15;95078.09;;;31.24;32.28
68141;BME280;54941;52.220;104.306;2022-08-01T05:39:42;95072.38;;;31.19;32.50
68141;BME280;54941;52.220;104.306;2022-08-01T05:42:08;95064.94;;;30.98;32.39
68141;BME280;54941;52.220;104.306;2022-08-01T05:44:34;95058.59;;;31.13;32.39
68141;BME280;54941;52.220;104.306;2022-08-01T05:47:00;95065.84;;;31.64;33.24
68141;BME280;54941;52.220;104.306;2022-08-01T05:49:26;95056.41;;;30.82;32.80
68141;BME280;54941;52.220;104.306;2022-08-01T05:51:52;95056.44;;;31.26;32.92
68141;BME280;54941;52.220;104.306;2022-08-01T05:54:18;95041.59;;;31.25;32.05
68141;BME280;54941;52.220;104.306;2022-08-01T05:56:44;95046.03;;;31.10;32.40
68141;BME280;54941;52.220;104.306;2022-08-01T05:59:10;95037.06;;;31.29;33.45
68141;BME280;54941;52.220;104.306;2022-08-01T06:01:36;95042.16;;;31.52;33.86
68141;BME280;54941;52.220;104.306;2022-08-01T06:04:03;95035.66;;;30.98;34.25
68141;BME280;54941;52.220;104.306;2022-08-01T06:06:32;95037.00;;;31.22;34.80
68141;BME280;54941;52.220;104.306;2022-08-01T06:08:58;95035.38;;;30.70;34.54
68141;BME280;54941;52.220;104.306;2022-08-01T06:11:24;95034.69;;;30.80;34.82
68141;BME280;54941;52.220;104.306;2022-08-01T06:13:50;95031.81;;;30.96;33.46
68141;BME280;54941;52.220;104.306;2022-08-01T06:16:16;95046.66;;;30.26;34.74
68141;BME280;54941;52.220;104.306;2022-08-01T06:18:43;95043.28;;;30.29;35.41
68141;BME280;54941;52.220;104.306;2022-08-01T06:21:11;95040.25;;;30.31;35.23
68141;BME280;54941;52.220;104.306;2022-08-01T06:23:37;95043.72;;;30.68;34.78
68141;BME280;54941;52.220;104.306;2022-08-01T06:26:03;95034.06;;;30.53;35.20
68141;BME280;54941;52.220;104.306;2022-08-01T06:28:29;95036.72;;;30.53;35.28
68141;BME280;54941;52.220;104.306;2022-08-01T06:30:55;95035.66;;;30.28;35.87
68141;BME280;54941;52.220;104.306;2022-08-01T06:33:21;95031.06;;;30.58;34.59
68141;BME280;54941;52.220;104.306;2022-08-01T06:35:48;95025.16;;;30.09;36.37
68141;BME280;54941;52.220;104.306;2022-08-01T06:38:14;95024.91;;;30.51;35.83
68141;BME280;54941;52.220;104.306;2022-08-01T06:40:40;95016.47;;;30.45;36.32
68141;BME280;54941;52.220;104.306;2022-08-01T06:43:06;95019.06;;;30.41;36.21
68141;BME280;54941;52.220;104.306;2022-08-01T06:45:32;95013.72;;;30.38;37.04
68141;BME280;54941;52.220;104.306;2022-08-01T06:47:58;95021.16;;;30.22;37.46
68141;BME280;54941;52.220;104.306;2022-08-01T06:50:24;95013.88;;;30.15;37.01
68141;BME280;54941;52.220;104.306;2022-08-01T06:52:50;95023.13;;;30.28;36.05
68141;BME280;54941;52.220;104.306;2022-08-01T06:55:17;95016.53;;;30.49;36.12
68141;BME280;54941;52.220;104.306;2022-08-01T06:57:51;95012.84;;;30.27;35.96
68141;BME280;54941;52.220;104.306;2022-08-01T07:00:22;95018.16;;;30.27;35.92
68141;BME280;54941;52.220;104.306;2022-08-01T07:02:53;95016.38;;;29.75;37.70
68141;BME280;54941;52.220;104.306;2022-08-01T07:05:20;95003.44;;;29.73;37.80
68141;BME280;54941;52.220;104.306;2022-08-01T07:07:47;95007.88;;;29.92;37.59
68141;BME280;54941;52.220;104.306;2022-08-01T07:10:13;95018.03;;;30.16;36.68
68141;BME280;54941;52.220;104.306;2022-08-01T07:12:39;95011.88;;;30.09;37.07
68141;BME280;54941;52.220;104.306;2022-08-01T07:15:07;95006.00;;;30.26;36.96
68141;BME280;54941;52.220;104.306;2022-08-01T07:17:41;95003.00;;;30.31;35.52
68141;BME280;54941;52.220;104.306;2022-08-01T07:20:09;95004.78;;;30.20;36.60
68141;BME280;54941;52.220;104.306;2022-08-01T07:22:36;94997.41;;;29.76;36.46
68141;BME280;54941;52.220;104.306;2022-08-01T07:25:04;94997.28;;;29.39;37.42
68141;BME280;54941;52.220;104.306;2022-08-01T07:27:30;94989.44;;;29.76;37.02
68141;BME280;54941;52.220;104.306;2022-08-01T07:29:56;94987.75;;;29.91;36.68
68141;BME280;54941;52.220;104.306;2022-08-01T07:32:23;94983.69;;;29.71;37.02
68141;BME280;54941;52.220;104.306;2022-08-01T07:34:49;94976.22;;;29.54;36.95
68141;BME280;54941;52.220;104.306;2022-08-01T07:37:15;94971.31;;;29.82;36.95
68141;BME280;54941;52.220;104.306;2022-08-01T07:39:41;94970.88;;;29.50;37.39
68141;BME280;54941;52.220;104.306;2022-08-01T07:42:07;94979.03;;;29.38;38.23
68141;BME280;54941;52.220;104.306;2022-08-01T07:44:34;94973.22;;;29.55;38.43
68141;BME280;54941;52.220;104.306;2022-08-01T07:47:01;94969.69;;;29.74;38.03
68141;BME280;54941;52.220;104.306;2022-08-01T07:49:30;94965.28;;;29.29;38.35
68141;BME280;54941;52.220;104.306;2022-08-01T07:51:56;94965.34;;;29.32;38.49
68141;BME280;54941;52.220;104.306;2022-08-01T07:54:22;94968.66;;;29.52;37.51
68141;BME280;54941;52.220;104.306;2022-08-01T07:56:48;94962.00;;;29.69;37.71
68141;BME280;54941;52.220;104.306;2022-08-01T07:59:14;94968.34;;;29.87;36.48
68141;BME280;54941;52.220;104.306;2022-08-01T08:01:40;94965.47;;;29.73;35.14
68141;BME280;54941;52.220;104.306;2022-08-01T08:04:07;94956.06;;;29.23;35.56
68141;BME280;54941;52.220;104.306;2022-08-01T08:06:33;94954.03;;;29.39;35.80
68141;BME280;54941;52.220;104.306;2022-08-01T08:08:59;94947.34;;;29.48;35.91
68141;BME280;54941;52.220;104.306;2022-08-01T08:11:26;94945.69;;;29.37;35.91
68141;BME280;54941;52.220;104.306;2022-08-01T08:13:52;94944.81;;;29.29;34.71
68141;BME280;54941;52.220;104.306;2022-08-01T08:16:18;94942.69;;;29.42;35.45
68141;BME280;54941;52.220;104.306;2022-08-01T08:18:44;94942.28;;;29.40;32.92
68141;BME280;54941;52.220;104.306;2022-08-01T08:21:10;94943.59;;;29.53;31.50
68141;BME280;54941;52.220;104.306;2022-08-01T08:23:36;94938.44;;;29.64;31.98
68141;BME280;54941;52.220;104.306;2022-08-01T08:26:02;94934.50;;;29.54;33.84
68141;BME280;54941;52.220;104.306;2022-08-01T08:28:28;94932.88;;;29.46;33.99
68141;BME280;54941;52.220;104.306;2022-08-01T08:30:54;94930.19;;;29.42;34.66
68141;BME280;54941;52.220;104.306;2022-08-01T08:33:21;94923.75;;;29.43;34.22
68141;BME280;54941;52.220;104.306;2022-08-01T08:35:47;94915.09;;;29.50;35.47
68141;BME280;54941;52.220;104.306;2022-08-01T08:38:13;94917.28;;;29.41;35.67
68141;BME280;54941;52.220;104.306;2022-08-01T08:40:42;94914.00;;;29.25;35.15
68141;BME280;54941;52.220;104.306;2022-08-01T08:43:08;94922.81;;;29.29;35.64
68141;BME280;54941;52.220;104.306;2022-08-01T08:45:34;94911.16;;;29.37;35.53
68141;BME280;54941;52.220;104.306;2022-08-01T08:48:00;94915.09;;;29.24;36.68
68141;BME280;54941;52.220;104.306;2022-08-01T08:50:28;94904.59;;;29.31;35.95
68141;BME280;54941;52.220;104.306;2022-08-01T08:52:55;94902.13;;;29.41;36.71
68141;BME280;54941;52.220;104.306;2022-08-01T08:55:22;94897.38;;;29.28;37.36
68141;BME280;54941;52.220;104.306;2022-08-01T08:57:52;94901.34;;;29.41;36.26
68141;BME280;54941;52.220;104.306;2022-08-01T09:00:18;94896.94;;;29.52;36.71
68141;BME280;54941;52.220;104.306;2022-08-01T09:02:47;94902.03;;;29.68;36.32
68141;BME280;54941;52.220;104.306;2022-08-01T09:05:13;94900.84;;;29.62;37.05
68141;BME280;54941;52.220;104.306;2022-08-01T09:07:39;94897.81;;;29.63;37.60
68141;BME280;54941;52.220;104.306;2022-08-01T09:10:06;94896.47;;;29.80;36.75
68141;BME280;54941;52.220;104.306;2022-08-01T09:12:33;94900.41;;;29.56;36.93
68141;BME280;54941;52.220;104.306;2022-08-01T09:14:59;94898.78;;;29.48;37.04
68141;BME280;54941;52.220;104.306;2022-08-01T09:17:25;94900.72;;;29.51;36.90
68141;BME280;54941;52.220;104.306;2022-08-01T09:19:54;94903.00;;;29.53;36.73
68141;BME280;54941;52.220;104.306;2022-08-01T09:22:23;94905.38;;;29.61;36.91
68141;BME280;54941;52.220;104.306;2022-08-01T09:25:04;94906.91;;;29.62;37.78
68141;BME280;54941;52.220;104.306;2022-08-01T09:27:31;94909.16;;;29.60;38.16
68141;BME280;54941;52.220;104.306;2022-08-01T09:32:36;94902.16;;;29.45;38.72
68141;BME280;54941;52.220;104.306;2022-08-01T09:35:22;94902.00;;;29.34;38.50
68141;BME280;54941;52.220;104.306;2022-08-01T09:37:48;94899.50;;;29.19;38.76
68141;BME280;54941;52.220;104.306;2022-08-01T09:40:15;94898.22;;;29.09;41.54
68141;BME280;54941;52.220;104.306;2022-08-01T09:42:41;94899.03;;;29.13;40.63
68141;BME280;54941;52.220;104.306;2022-08-01T09:45:07;94891.22;;;28.97;43.05
68141;BME280;54941;52.220;104.306;2022-08-01T09:47:38;94888.19;;;28.95;40.42
68141;BME280;54941;52.220;104.306;2022-08-01T09:50:05;94890.13;;;28.98;40.76
68141;BME280;54941;52.220;104.306;2022-08-01T09:52:31;94888.63;;;29.01;41.96
68141;BME280;54941;52.220;104.306;2022-08-01T09:54:59;94886.44;;;29.07;42.90
68141;BME280;54941;52.220;104.306;2022-08-01T09:57:29;94886.44;;;28.80;53.03
68141;BME280;54941;52.220;104.306;2022-08-01T09:59:57;94890.25;;;28.34;56.66
68141;BME280;54941;52.220;104.306;2022-08-01T10:02:28;94889.88;;;27.93;56.64
68141;BME280;54941;52.220;104.306;2022-08-01T10:04:55;94884.88;;;27.69;58.44
68141;BME280;54941;52.220;104.306;2022-08-01T10:07:21;94887.00;;;27.60;60.15
68141;BME280;54941;52.220;104.306;2022-08-01T10:09:48;94885.50;;;27.63;59.94
68141;BME280;54941;52.220;104.306;2022-08-01T10:12:17;94885.00;;;27.38;61.59
68141;BME280;54941;52.220;104.306;2022-08-01T10:14:47;94886.81;;;27.34;61.19
68141;BME280;54941;52.220;104.306;2022-08-01T10:17:16;94882.97;;;27.31;61.66
68141;BME280;54941;52.220;104.306;2022-08-01T10:19:43;94878.16;;;27.18;62.75
68141;BME280;54941;52.220;104.306;2022-08-01T10:22:12;94882.34;;;27.19;61.74
68141;BME280;54941;52.220;104.306;2022-08-01T10:24:39;94876.28;;;27.18;63.64
68141;BME280;54941;52.220;104.306;2022-08-01T10:27:09;94879.53;;;27.12;64.76
68141;BME280;54941;52.220;104.306;2022-08-01T10:29:44;94882.56;;;26.94;67.22
68141;BME280;54941;52.220;104.306;2022-08-01T10:32:12;94882.50;;;26.75;67.90
68141;BME280;54941;52.220;104.306;2022-08-01T10:34:38;94884.81;;;26.45;70.12
68141;BME280;54941;52.220;104.306;2022-08-01T10:37:05;94885.91;;;26.44;67.91
68141;BME280;54941;52.220;104.306;2022-08-01T10:39:32;94879.00;;;26.40;69.13
68141;BME280;54941;52.220;104.306;2022-08-01T10:41:59;94882.09;;;26.26;71.10
68141;BME280;54941;52.220;104.306;2022-08-01T10:44:28;94875.59;;;26.24;70.02
68141;BME280;54941;52.220;104.306;2022-08-01T10:47:02;94876.34;;;26.08;70.26
68141;BME280;54941;52.220;104.306;2022-08-01T10:49:34;94875.94;;;25.79;74.35
68141;BME280;54941;52.220;104.306;2022-08-01T10:52:01;94882.81;;;25.67;71.14
68141;BME280;54941;52.220;104.306;2022-08-01T10:54:27;94885.25;;;25.48;67.85
68141;BME280;54941;52.220;104.306;2022-08-01T10:56:53;94881.75;;;25.44;66.97
68141;BME280;54941;52.220;104.306;2022-08-01T10:59:25;94889.81;;;25.36;67.08
68141;BME280;54941;52.220;104.306;2022-08-01T11:01:58;94884.00;;;25.30;66.28
68141;BME280;54941;52.220;104.306;2022-08-01T11:07:08;94876.31;;;25.25;72.61
68141;BME280;54941;52.220;104.306;2022-08-01T11:09:40;94874.03;;;25.11;74.70
68141;BME280;54941;52.220;104.306;2022-08-01T11:12:12;94876.69;;;25.11;71.71
68141;BME280;54941;52.220;104.306;2022-08-01T11:20:10;94865.97;;;25.32;66.99
68141;BME280;54941;52.220;104.306;2022-08-01T11:25:25;94872.31;;;25.03;70.50
68141;BME280;54941;52.220;104.306;2022-08-01T11:30:44;94877.66;;;25.19;67.17
68141;BME280;54941;52.220;104.306;2022-08-01T11:33:11;94880.53;;;25.02;72.01
68141;BME280;54941;52.220;104.306;2022-08-01T11:35:39;94883.72;;;25.07;70.18
68141;BME280;54941;52.220;104.306;2022-08-01T11:38:27;94884.19;;;24.97;73.18
68141;BME280;54941;52.220;104.306;2022-08-01T11:44:02;94875.31;;;25.30;69.63
68141;BME280;54941;52.220;104.306;2022-08-01T11:46:57;94876.06;;;25.70;65.42
68141;BME280;54941;52.220;104.306;2022-08-01T11:49:45;94875.34;;;25.57;67.66
68141;BME280;54941;52.220;104.306;2022-08-01T11:52:37;94867.88;;;25.19;71.84
68141;BME280;54941;52.220;104.306;2022-08-01T11:57:31;94871.78;;;24.98;68.22
68141;BME280;54941;52.220;104.306;2022-08-01T11:59:58;94879.56;;;24.82;69.37
68141;BME280;54941;52.220;104.306;2022-08-01T12:07:22;94872.22;;;24.63;67.24
68141;BME280;54941;52.220;104.306;2022-08-01T12:10:06;94873.50;;;24.69;71.84
68141;BME280;54941;52.220;104.306;2022-08-01T12:12:34;94873.84;;;24.56;70.54
68141;BME280;54941;52.220;104.306;2022-08-01T12:15:06;94887.88;;;24.36;70.46
68141;BME280;54941;52.220;104.306;2022-08-01T12:17:35;94884.59;;;23.94;74.20
68141;BME280;54941;52.220;104.306;2022-08-01T12:20:05;94879.88;;;23.87;72.96
68141;BME280;54941;52.220;104.306;2022-08-01T12:22:31;94874.34;;;23.80;73.77
68141;BME280;54941;52.220;104.306;2022-08-01T12:25:09;94873.03;;;23.74;74.24
68141;BME280;54941;52.220;104.306;2022-08-01T12:27:37;94872.25;;;23.73;74.42
68141;BME280;54941;52.220;104.306;2022-08-01T12:30:08;94870.34;;;23.62;74.17
68141;BME280;54941;52.220;104.306;2022-08-01T12:32:39;94880.06;;;23.49;74.94
68141;BME280;54941;52.220;104.306;2022-08-01T12:37:37;94879.97;;;23.37;72.27
68141;BME280;54941;52.220;104.306;2022-08-01T12:40:19;94877.88;;;23.31;71.96
68141;BME280;54941;52.220;104.306;2022-08-01T12:42:48;94879.47;;;23.23;70.63
68141;BME280;54941;52.220;104.306;2022-08-01T12:45:18;94882.88;;;23.23;67.78
68141;BME280;54941;52.220;104.306;2022-08-01T12:47:46;94891.31;;;23.29;68.37
68141;BME280;54941;52.220;104.306;2022-08-01T12:50:15;94892.28;;;23.04;70.51
68141;BME280;54941;52.220;104.306;2022-08-01T12:52:42;94893.34;;;22.82;71.67
68141;BME280;54941;52.220;104.306;2022-08-01T12:57:42;94891.53;;;22.65;71.07
68141;BME280;54941;52.220;104.306;2022-08-01T13:00:11;94896.03;;;22.65;71.69
68141;BME280;54941;52.220;104.306;2022-08-01T13:02:38;94896.97;;;22.60;72.10
68141;BME280;54941;52.220;104.306;2022-08-01T13:05:06;94901.22;;;22.44;72.78
68141;BME280;54941;52.220;104.306;2022-08-01T13:07:40;94907.25;;;22.36;73.39
68141;BME280;54941;52.220;104.306;2022-08-01T13:10:07;94902.75;;;22.45;72.34
68141;BME280;54941;52.220;104.306;2022-08-01T13:12:35;94901.97;;;22.53;72.16
68141;BME280;54941;52.220;104.306;2022-08-01T13:15:25;94909.22;;;22.48;71.73
68141;BME280;54941;52.220;104.306;2022-08-01T13:17:53;94913.03;;;22.59;68.94
68141;BME280;54941;52.220;104.306;2022-08-01T13:22:49;94904.34;;;22.75;69.93
68141;BME280;54941;52.220;104.306;2022-08-01T13:25:16;94902.94;;;22.78;68.32